Time;durP1;ratioP1;P1;durP2;ratioP2;P2;SDS_P1;SDS_P2;PMS_P1;PMS_P2;Temp;Humidity;BMP_temperature;BMP_pressure;BME280_temperature;BME280_humidity;BME280_pressure;Samples;Min_cycle;Max_cycle;Signal;HPM_P1;HPM_P2
2023/01/16 00:01:11;;;;;;;16.00;7.60;;;;;;;3.53;77.59;96321.05;108877;1251;95915;-73
2023/01/16 00:03:40;;;;;;;15.50;7.70;;;;;;;3.51;77.67;96314.02;108899;1250;103554;-74
2023/01/16 00:06:08;;;;;;;17.20;8.50;;;;;;;3.50;77.67;96314.44;108918;1251;101510;-74
2023/01/16 00:08:36;;;;;;;16.40;7.90;;;;;;;3.50;77.75;96310.74;108902;1251;99957;-73
2023/01/16 00:11:05;;;;;;;18.50;8.30;;;;;;;3.50;77.59;96311.72;108877;1251;95807;-74
2023/01/16 00:13:33;;;;;;;15.60;6.70;;;;;;;3.50;77.62;96305.36;108572;1251;96095;-73
2023/01/16 00:16:01;;;;;;;11.80;5.90;;;;;;;3.50;77.65;96299.70;108903;1251;103566;-74
2023/01/16 00:18:29;;;;;;;14.40;6.20;;;;;;;3.49;77.66;96297.27;108869;1250;101971;-75
2023/01/16 00:20:58;;;;;;;12.40;5.30;;;;;;;3.47;77.77;96297.66;108876;1251;99959;-74
2023/01/16 00:23:26;;;;;;;58.60;18.10;;;;;;;3.48;77.70;96294.23;108630;1252;95871;-74
2023/01/16 00:25:54;;;;;;;77.70;26.00;;;;;;;3.48;77.75;96294.15;108935;1251;96035;-74
2023/01/16 00:28:22;;;;;;;76.90;25.80;;;;;;;3.48;77.71;96295.42;108935;1251;103392;-73
2023/01/16 00:30:50;;;;;;;37.00;13.60;;;;;;;3.47;77.71;96297.88;108928;1252;101011;-74
2023/01/16 00:33:19;;;;;;;26.50;11.60;;;;;;;3.46;77.75;96294.86;108283;1252;98957;-74
2023/01/16 00:35:47;;;;;;;18.30;7.40;;;;;;;3.44;77.88;96292.91;108908;1251;95594;-75
2023/01/16 00:38:16;;;;;;;10.60;5.40;;;;;;;3.45;77.83;96296.41;108885;1251;96207;-74
2023/01/16 00:40:44;;;;;;;10.20;5.70;;;;;;;3.46;77.85;96290.76;108544;1253;103291;-75
2023/01/16 00:43:12;;;;;;;6.60;4.00;;;;;;;3.46;77.93;96288.09;108794;1253;101435;-73
2023/01/16 00:45:40;;;;;;;8.10;4.40;;;;;;;3.44;77.91;96283.80;108705;1251;238220;-74
2023/01/16 00:48:11;;;;;;;9.10;4.50;;;;;;;3.42;77.87;96270.53;108901;1251;96004;-73
2023/01/16 00:50:39;;;;;;;11.00;4.80;;;;;;;3.40;78.02;96274.04;108865;1251;96649;-73
2023/01/16 00:53:07;;;;;;;18.60;7.20;;;;;;;3.40;77.84;96274.04;108928;1251;103554;-73
2023/01/16 00:55:36;;;;;;;16.50;7.30;;;;;;;3.41;77.93;96271.09;108890;1250;101265;-73
2023/01/16 00:58:05;;;;;;;29.80;12.40;;;;;;;3.43;77.75;96267.50;108906;1251;99531;-74
2023/01/16 01:00:33;;;;;;;21.00;10.00;;;;;;;3.43;77.74;96269.80;108603;1254;95691;-73
2023/01/16 01:03:01;;;;;;;11.00;5.10;;;;;;;3.44;77.86;96281.92;108884;1251;96114;-73
2023/01/16 01:05:30;;;;;;;7.70;4.80;;;;;;;3.44;77.90;96278.02;108887;1251;103495;-73
2023/01/16 01:07:58;;;;;;;7.20;4.00;;;;;;;3.42;77.82;96265.11;108681;1251;101021;-73
2023/01/16 01:10:26;;;;;;;18.40;7.70;;;;;;;3.40;77.79;96270.64;108880;1251;100033;-74
2023/01/16 01:12:55;;;;;;;10.90;5.80;;;;;;;3.40;77.86;96272.10;108848;1251;95653;-74
2023/01/16 01:15:24;;;;;;;10.30;4.50;;;;;;;3.36;77.93;96276.86;108605;1251;96579;-73
2023/01/16 01:17:52;;;;;;;8.80;4.80;;;;;;;3.35;77.80;96281.66;108928;1250;103177;-73
2023/01/16 01:20:20;;;;;;;9.60;4.60;;;;;;;3.34;77.82;96279.97;108866;1250;101327;-73
2023/01/16 01:22:48;;;;;;;13.50;5.70;;;;;;;3.31;77.85;96273.94;108676;1252;98992;-73
2023/01/16 01:25:16;;;;;;;12.50;5.80;;;;;;;3.28;77.73;96269.23;108873;1251;95972;-75
2023/01/16 01:27:45;;;;;;;8.90;4.20;;;;;;;3.20;77.69;96268.40;108956;1251;97918;-73
2023/01/16 01:30:15;;;;;;;7.90;4.60;;;;;;;3.14;77.73;96270.73;108907;1251;104201;-73
2023/01/16 01:32:43;;;;;;;6.10;4.40;;;;;;;3.11;77.70;96262.98;108822;1251;101478;-73
2023/01/16 01:35:12;;;;;;;8.30;4.80;;;;;;;3.06;77.80;96262.86;108864;1251;99753;-73
2023/01/16 01:37:40;;;;;;;8.30;4.60;;;;;;;3.03;77.85;96262.80;108872;1251;95547;-74
2023/01/16 01:40:09;;;;;;;8.00;4.60;;;;;;;3.00;77.87;96267.21;108915;1251;96006;-74
2023/01/16 01:42:46;;;;;;;13.00;4.70;;;;;;;2.97;77.89;96263.83;108675;1250;103562;-74
2023/01/16 01:45:21;;;;;;;10.40;5.30;;;;;;;2.88;77.85;96260.41;108928;1251;101303;-73
2023/01/16 01:48:16;;;;;;;10.70;5.60;;;;;;;2.80;78.02;96255.09;108877;1251;109094;-74
2023/01/16 01:50:59;;;;;;;10.30;5.10;;;;;;;2.78;78.22;96253.38;108837;1251;95611;-75
2023/01/16 01:53:31;;;;;;;13.20;5.90;;;;;;;2.78;78.12;96249.19;108820;1251;96051;-73
2023/01/16 01:56:07;;;;;;;16.20;6.60;;;;;;;2.78;78.11;96247.77;108928;1251;103437;-73
2023/01/16 01:58:35;;;;;;;11.70;6.40;;;;;;;2.77;78.03;96240.83;108908;1251;101262;-74
2023/01/16 02:01:04;;;;;;;13.40;6.20;;;;;;;2.72;78.06;96241.23;108807;1253;99807;-73
2023/01/16 02:03:40;;;;;;;13.90;6.40;;;;;;;2.70;78.13;96240.30;108826;1251;95609;-73
2023/01/16 02:06:18;;;;;;;10.70;5.70;;;;;;;2.68;78.06;96238.66;108893;1251;96037;-74
2023/01/16 02:08:48;;;;;;;8.30;5.20;;;;;;;2.68;78.17;96243.02;108873;1250;103603;-74
2023/01/16 02:11:26;;;;;;;13.40;6.40;;;;;;;2.67;78.22;96242.61;108917;1251;101264;-74
2023/01/16 02:14:01;;;;;;;17.00;6.60;;;;;;;2.66;78.32;96244.66;108826;1251;99894;-73
2023/01/16 02:19:21;;;;;;;16.80;7.20;;;;;;;2.64;78.20;96249.60;108644;1251;96009;-73
2023/01/16 02:21:55;;;;;;;16.50;8.10;;;;;;;2.59;78.19;96240.01;108892;1251;103062;-74
2023/01/16 02:25:00;;;;;;;22.90;9.90;;;;;;;2.56;78.23;96236.68;108954;1251;101773;-74
2023/01/16 02:27:47;;;;;;;19.30;9.10;;;;;;;2.56;78.39;96227.46;108865;1251;100027;-74
2023/01/16 02:30:21;;;;;;;26.60;10.10;;;;;;;2.56;78.38;96226.92;108842;1251;95744;-73
2023/01/16 02:32:49;;;;;;;18.20;7.40;;;;;;;2.52;78.33;96228.06;108908;1251;96029;-74
2023/01/16 02:35:39;;;;;;;13.30;6.30;;;;;;;2.51;78.33;96221.33;108918;1251;103642;-73
2023/01/16 02:38:22;;;;;;;12.70;6.10;;;;;;;2.50;78.41;96219.48;108828;1251;101557;-74
2023/01/16 02:41:08;;;;;;;20.70;8.60;;;;;;;2.49;78.44;96208.89;108831;1251;98784;-73
2023/01/16 02:44:18;;;;;;;25.40;10.00;;;;;;;2.46;78.31;96215.33;108835;1251;95678;-73
2023/01/16 02:47:20;;;;;;;12.90;6.40;;;;;;;2.39;78.43;96212.15;108277;1259;96453;-73
2023/01/16 02:50:29;;;;;;;9.10;5.00;;;;;;;2.35;78.52;96212.48;107837;1266;104002;-75
2023/01/16 02:53:12;;;;;;;7.70;4.60;;;;;;;2.34;78.68;96209.52;107804;1266;101605;-74
2023/01/16 02:55:49;;;;;;;9.90;5.40;;;;;;;2.35;78.70;96205.38;107523;1267;108428;-74
2023/01/16 02:58:19;;;;;;;11.70;5.00;;;;;;;2.36;78.65;96207.36;107811;1266;95656;-73
2023/01/16 03:00:56;;;;;;;10.30;5.60;;;;;;;2.38;78.68;96208.73;107845;1266;96203;-74
2023/01/16 03:04:04;;;;;;;9.40;5.10;;;;;;;2.37;78.69;96213.27;107776;1267;103131;-73
2023/01/16 03:06:44;;;;;;;7.50;5.50;;;;;;;2.38;78.80;96212.55;107595;1267;101378;-73
2023/01/16 03:09:41;;;;;;;12.60;6.40;;;;;;;2.41;78.79;96214.67;107824;1266;99863;-74
2023/01/16 03:12:40;;;;;;;33.50;11.50;;;;;;;2.35;78.73;96214.23;107813;1267;95875;-73
2023/01/16 03:15:34;;;;;;;21.00;9.80;;;;;;;2.26;78.67;96214.27;107672;1266;96263;-74
2023/01/16 03:18:46;;;;;;;15.50;8.10;;;;;;;2.23;78.87;96209.05;107137;1273;103489;-73
2023/01/16 03:21:29;;;;;;;15.10;7.50;;;;;;;2.20;78.86;96203.90;106598;1279;101428;-74
2023/01/16 03:24:26;;;;;;;25.00;10.20;;;;;;;2.15;78.88;96203.29;106863;1272;100242;-74
2023/01/16 03:27:30;;;;;;;27.30;11.30;;;;;;;2.09;78.84;96199.89;106915;1272;95755;-73
2023/01/16 03:30:01;;;;;;;23.80;10.70;;;;;;;2.09;78.97;96195.07;107323;1272;96085;-74
2023/01/16 03:32:40;;;;;;;19.70;10.40;;;;;;;2.09;79.01;96188.14;107361;1272;103237;-73
2023/01/16 03:35:30;;;;;;;19.80;10.30;;;;;;;2.08;78.99;96179.37;107374;1273;101241;-74
2023/01/16 03:38:11;;;;;;;18.00;9.40;;;;;;;2.04;79.09;96172.30;107361;1271;99993;-72
2023/01/16 03:40:43;;;;;;;15.90;8.40;;;;;;;2.02;79.15;96166.50;107204;1272;95640;-73
2023/01/16 03:43:39;;;;;;;10.00;6.20;;;;;;;2.02;79.10;96170.18;107214;1272;96084;-73
2023/01/16 03:46:39;;;;;;;5.20;4.40;;;;;;;1.99;79.16;96161.95;106971;1275;103210;-73
2023/01/16 03:49:36;;;;;;;4.50;3.90;;;;;;;1.93;79.19;96163.06;106499;1280;110607;-74
2023/01/16 03:52:08;;;;;;;4.40;3.80;;;;;;;1.92;79.41;96165.28;106262;1280;99253;-74
2023/01/16 03:55:04;;;;;;;6.20;4.70;;;;;;;1.90;79.42;96159.13;106525;1280;95768;-74
2023/01/16 03:57:47;;;;;;;5.40;4.80;;;;;;;1.90;79.52;96156.86;107494;1267;96681;-74
2023/01/16 04:00:16;;;;;;;6.90;5.00;;;;;;;1.92;79.64;96160.70;107685;1268;102701;-73
2023/01/16 04:03:08;;;;;;;9.40;7.00;;;;;;;1.91;79.63;96161.70;107836;1267;101282;-73
2023/01/16 04:05:50;;;;;;;7.70;6.20;;;;;;;1.89;79.81;96154.71;107848;1263;98893;-73
2023/01/16 04:08:29;;;;;;;6.50;5.40;;;;;;;1.86;79.85;96145.75;107975;1263;95698;-73
2023/01/16 04:10:58;;;;;;;7.90;5.50;;;;;;;1.88;79.84;96145.77;107968;1263;96184;-75
2023/01/16 04:13:31;;;;;;;8.00;5.80;;;;;;;1.88;79.78;96150.37;108017;1263;103924;-74
2023/01/16 04:16:03;;;;;;;10.00;6.50;;;;;;;1.90;79.80;96145.85;107891;1263;100717;-74
2023/01/16 04:18:34;;;;;;;9.20;6.50;;;;;;;1.92;79.83;96138.84;107812;1263;100080;-73
2023/01/16 04:21:07;;;;;;;9.70;6.70;;;;;;;1.92;79.88;96142.20;107886;1264;95649;-73
2023/01/16 04:23:37;;;;;;;7.70;6.00;;;;;;;1.92;79.92;96139.58;108119;1259;96712;-73
2023/01/16 04:26:05;;;;;;;10.10;5.80;;;;;;;1.89;79.94;96139.50;108515;1253;103583;-73
2023/01/16 04:28:33;;;;;;;6.80;5.20;;;;;;;1.90;79.85;96140.90;108702;1251;101292;-74
2023/01/16 04:31:01;;;;;;;10.80;6.20;;;;;;;1.91;79.91;96140.02;108858;1251;100003;-73
2023/01/16 04:33:29;;;;;;;9.70;5.30;;;;;;;1.92;79.94;96137.81;108896;1251;95555;-73
2023/01/16 04:35:57;;;;;;;10.30;6.80;;;;;;;1.90;80.03;96134.67;108848;1251;96025;-74
2023/01/16 04:38:25;;;;;;;8.20;5.00;;;;;;;1.88;80.12;96124.29;108895;1251;103621;-73
2023/01/16 04:40:55;;;;;;;10.60;6.30;;;;;;;1.89;80.07;96121.68;108601;1252;101067;-73
2023/01/16 04:43:23;;;;;;;8.10;5.10;;;;;;;1.90;80.07;96113.15;108831;1251;99375;-73
2023/01/16 04:45:51;;;;;;;9.30;6.20;;;;;;;1.89;80.00;96104.98;108851;1251;95559;-73
2023/01/16 04:48:19;;;;;;;11.40;7.60;;;;;;;1.91;80.05;96108.69;108655;1252;95776;-73
2023/01/16 04:50:50;;;;;;;12.30;7.40;;;;;;;1.93;80.07;96111.73;108935;1251;103381;-75
2023/01/16 04:53:18;;;;;;;6.50;5.00;;;;;;;1.92;80.06;96110.09;108886;1250;101359;-74
2023/01/16 04:55:46;;;;;;;10.70;7.30;;;;;;;1.91;80.14;96100.70;108862;1251;99645;-73
2023/01/16 04:58:14;;;;;;;11.40;7.00;;;;;;;1.90;80.17;96093.62;108893;1251;95500;-74
2023/01/16 05:00:43;;;;;;;8.00;5.70;;;;;;;1.92;80.30;96095.85;108651;1251;96115;-73
2023/01/16 05:03:11;;;;;;;8.50;5.50;;;;;;;1.96;80.27;96099.44;108915;1251;103821;-73
2023/01/16 05:05:40;;;;;;;10.00;6.00;;;;;;;1.97;80.08;96097.73;108900;1251;100416;-75
2023/01/16 05:08:17;;;;;;;10.10;6.80;;;;;;;2.00;80.17;96094.60;108460;1253;101257;-73
2023/01/16 05:10:46;;;;;;;14.40;7.90;;;;;;;2.02;80.08;96098.80;108915;1251;95860;-75
2023/01/16 05:13:14;;;;;;;28.60;15.20;;;;;;;2.03;80.14;96098.82;108418;1252;96542;-74
2023/01/16 05:15:45;;;;;;;20.80;12.60;;;;;;;2.03;80.09;96099.64;108904;1251;103096;-74
2023/01/16 05:18:13;;;;;;;21.60;14.10;;;;;;;2.03;80.08;96102.10;108665;1250;101540;-74
2023/01/16 05:20:41;;;;;;;19.40;13.50;;;;;;;2.05;80.07;96095.19;108875;1251;100159;-73
2023/01/16 05:23:10;;;;;;;19.10;11.70;;;;;;;2.06;80.06;96096.30;108916;1251;95521;-73
2023/01/16 05:25:39;;;;;;;20.40;12.50;;;;;;;2.03;79.84;96099.19;108664;1251;96017;-74
2023/01/16 05:28:08;;;;;;;18.40;10.50;;;;;;;1.99;79.79;96093.12;108921;1254;103651;-73
2023/01/16 05:30:36;;;;;;;20.20;11.20;;;;;;;1.93;79.73;96096.54;108879;1251;109799;-74
2023/01/16 05:33:05;;;;;;;18.70;11.40;;;;;;;1.90;79.81;96095.86;108868;1251;99720;-74
2023/01/16 05:35:33;;;;;;;18.80;11.50;;;;;;;1.86;79.80;96097.90;108590;1251;95666;-74
2023/01/16 05:38:01;;;;;;;29.70;16.30;;;;;;;1.85;79.83;96093.63;108935;1250;95989;-72
2023/01/16 05:40:29;;;;;;;30.60;16.60;;;;;;;1.85;79.84;96089.89;108894;1251;103531;-73
2023/01/16 05:42:58;;;;;;;26.50;15.30;;;;;;;1.85;79.89;96090.55;108570;1251;101365;-74
2023/01/16 05:45:26;;;;;;;26.40;15.80;;;;;;;1.85;79.87;96087.94;108811;1251;99934;-73
2023/01/16 05:47:54;;;;;;;27.10;17.00;;;;;;;1.85;79.92;96076.06;108856;1251;95690;-73
2023/01/16 05:50:22;;;;;;;23.40;14.70;;;;;;;1.84;79.85;96068.72;108889;1251;96006;-74
2023/01/16 05:52:51;;;;;;;20.30;13.10;;;;;;;1.84;79.82;96063.27;108554;1253;103809;-73
2023/01/16 05:55:19;;;;;;;20.00;12.50;;;;;;;1.83;79.83;96062.78;108891;1252;101428;-73
2023/01/16 05:57:47;;;;;;;18.80;12.40;;;;;;;1.81;79.88;96060.16;108817;1251;100213;-73
2023/01/16 06:00:16;;;;;;;22.70;13.80;;;;;;;1.79;79.83;96053.27;108567;1254;95650;-75
2023/01/16 06:02:44;;;;;;;19.80;13.50;;;;;;;1.77;79.93;96052.48;108868;1251;95972;-73
2023/01/16 06:05:14;;;;;;;21.60;13.40;;;;;;;1.76;79.82;96051.92;108673;1250;102614;-73
2023/01/16 06:07:42;;;;;;;21.90;12.60;;;;;;;1.75;79.74;96050.02;108921;1250;100995;-74
2023/01/16 06:10:11;;;;;;;20.20;12.70;;;;;;;1.74;79.78;96043.14;108861;1251;100147;-73
2023/01/16 06:12:39;;;;;;;18.40;11.50;;;;;;;1.73;79.79;96034.73;108821;1251;95628;-73
2023/01/16 06:15:08;;;;;;;21.00;12.10;;;;;;;1.70;79.64;96035.81;108934;1251;96700;-74
2023/01/16 06:17:36;;;;;;;24.40;13.00;;;;;;;1.66;79.54;96035.41;108888;1251;103395;-74
2023/01/16 06:20:05;;;;;;;26.20;14.30;;;;;;;1.63;79.61;96035.79;108910;1251;101441;-73
2023/01/16 06:22:33;;;;;;;25.80;17.10;;;;;;;1.58;79.60;96037.98;108710;1251;101180;-73
2023/01/16 06:25:01;;;;;;;32.60;18.40;;;;;;;1.55;79.68;96035.22;108851;1251;95963;-73
2023/01/16 06:27:29;;;;;;;34.30;18.00;;;;;;;1.54;79.69;96032.18;108955;1251;96063;-73
2023/01/16 06:29:57;;;;;;;32.80;17.50;;;;;;;1.54;79.69;96033.27;108835;1251;103807;-73
2023/01/16 06:32:25;;;;;;;35.20;19.30;;;;;;;1.53;79.59;96034.12;108878;1251;101506;-74
2023/01/16 06:34:53;;;;;;;31.70;19.70;;;;;;;1.51;79.69;96036.73;108858;1251;100021;-74
2023/01/16 06:37:21;;;;;;;34.10;19.40;;;;;;;1.51;79.75;96041.26;108549;1251;95616;-73
2023/01/16 06:39:49;;;;;;;22.00;14.50;;;;;;;1.49;79.67;96037.16;108648;1251;96079;-74
2023/01/16 06:42:19;;;;;;;21.10;13.90;;;;;;;1.50;79.85;96034.02;108939;1251;103614;-73
2023/01/16 06:44:48;;;;;;;22.20;14.00;;;;;;;1.52;79.80;96030.87;108889;1250;101282;-73
2023/01/16 06:47:16;;;;;;;22.60;13.90;;;;;;;1.53;79.83;96030.52;108873;1251;99611;-74
2023/01/16 06:49:44;;;;;;;20.80;14.00;;;;;;;1.51;79.76;96024.20;108889;1251;95537;-73
2023/01/16 06:52:12;;;;;;;23.60;13.90;;;;;;;1.50;79.84;96018.30;108886;1252;95986;-74
2023/01/16 06:54:40;;;;;;;20.10;14.20;;;;;;;1.52;79.83;96013.28;108864;1250;112345;-73
2023/01/16 06:57:08;;;;;;;25.20;16.80;;;;;;;1.52;79.86;96012.23;108834;1254;101014;-74
2023/01/16 06:59:36;;;;;;;25.50;16.80;;;;;;;1.52;79.89;96006.73;108762;1253;99929;-74
2023/01/16 07:02:04;;;;;;;21.50;15.00;;;;;;;1.54;79.97;95999.17;108763;1252;95793;-73
2023/01/16 07:04:32;;;;;;;30.30;17.60;;;;;;;1.58;80.05;95996.77;108831;1252;96060;-74
2023/01/16 07:07:00;;;;;;;31.20;18.90;;;;;;;1.61;80.04;95995.61;108792;1253;103370;-74
2023/01/16 07:09:29;;;;;;;38.80;23.80;;;;;;;1.65;80.22;95993.38;108824;1252;101717;-74
2023/01/16 07:11:58;;;;;;;45.90;26.50;;;;;;;1.68;80.23;95990.78;108549;1251;99573;-73
2023/01/16 07:22:45;;;;;;;114.70;51.70;;;;;;;1.88;80.39;95993.70;108773;1253;101613;-74
2023/01/16 07:25:35;;;;;;;106.40;50.10;;;;;;;1.90;80.31;95990.45;108796;1251;99894;-74
2023/01/16 07:28:03;;;;;;;107.00;47.70;;;;;;;1.93;80.35;95990.71;108813;1252;95585;-74
2023/01/16 07:30:31;;;;;;;87.30;41.80;;;;;;;1.95;80.28;95983.35;108772;1252;96030;-74
2023/01/16 07:32:59;;;;;;;74.30;36.60;;;;;;;1.97;80.32;95982.89;108781;1253;102688;-74
2023/01/16 07:35:27;;;;;;;68.80;36.80;;;;;;;2.00;80.35;95986.88;108821;1254;101012;-73
2023/01/16 07:37:56;;;;;;;73.00;37.50;;;;;;;2.02;80.32;95983.22;108535;1251;100032;-74
2023/01/16 07:40:25;;;;;;;69.00;37.10;;;;;;;2.04;80.28;95984.92;108754;1252;95935;-74
2023/01/16 07:42:53;;;;;;;63.50;35.90;;;;;;;2.06;80.29;95987.16;108533;1254;95946;-73
2023/01/16 07:45:21;;;;;;;60.80;34.20;;;;;;;2.06;80.27;95987.09;108750;1252;103551;-74
2023/01/16 07:47:49;;;;;;;65.10;35.20;;;;;;;2.07;80.27;95984.52;108830;1252;101324;-73
2023/01/16 07:50:17;;;;;;;73.80;35.30;;;;;;;2.08;80.35;95989.19;108767;1253;99855;-74
2023/01/16 07:52:46;;;;;;;49.80;30.90;;;;;;;2.07;80.41;95988.36;108741;1252;95941;-73
2023/01/16 07:55:15;;;;;;;50.50;29.40;;;;;;;2.08;80.36;95990.79;108502;1251;96681;-74
2023/01/16 07:57:43;;;;;;;54.10;29.60;;;;;;;2.09;80.41;95991.40;108866;1251;103492;-73
2023/01/16 08:00:13;;;;;;;52.30;30.90;;;;;;;2.11;80.61;95985.12;108880;1255;101357;-73
2023/01/16 08:02:42;;;;;;;53.60;33.50;;;;;;;2.14;80.44;95978.02;108857;1251;99419;-74
2023/01/16 08:05:11;;;;;;;56.30;33.00;;;;;;;2.17;80.62;95975.05;108808;1251;95557;-73
2023/01/16 08:07:39;;;;;;;59.90;37.30;;;;;;;2.21;80.61;95971.59;108831;1253;95982;-74
2023/01/16 08:10:08;;;;;;;63.40;38.40;;;;;;;2.23;80.63;95973.33;108905;1251;102366;-73
2023/01/16 08:12:38;;;;;;;56.20;38.80;;;;;;;2.24;80.56;95971.51;108898;1251;101390;-74
2023/01/16 08:15:07;;;;;;;61.60;37.70;;;;;;;2.29;80.59;95961.20;108661;1254;99842;-73
2023/01/16 08:17:38;;;;;;;60.60;38.80;;;;;;;2.31;80.44;95952.69;108803;1251;95530;-73
2023/01/16 08:20:08;;;;;;;78.50;41.50;;;;;;;2.32;80.51;95943.82;108911;1251;95740;-74
2023/01/16 08:22:36;;;;;;;94.10;42.80;;;;;;;2.32;80.43;95930.34;108862;1250;112262;-73
2023/01/16 08:25:04;;;;;;;98.60;50.00;;;;;;;2.32;80.46;95924.77;108902;1251;101594;-74
2023/01/16 08:27:32;;;;;;;106.10;52.50;;;;;;;2.31;80.58;95924.59;108859;1251;100010;-73
2023/01/16 08:30:00;;;;;;;93.20;50.20;;;;;;;2.33;80.59;95927.80;108604;1251;95607;-73
2023/01/16 08:32:28;;;;;;;88.90;50.10;;;;;;;2.35;80.53;95923.80;108874;1251;96559;-74
2023/01/16 08:34:56;;;;;;;92.80;53.20;;;;;;;2.37;80.58;95922.67;108873;1251;102493;-73
2023/01/16 08:37:24;;;;;;;71.20;40.80;;;;;;;2.37;80.68;95918.50;108839;1251;101262;-73
2023/01/16 08:39:52;;;;;;;88.00;46.80;;;;;;;2.39;80.59;95919.20;108864;1251;100484;-73
2023/01/16 08:53:23;;;;;;;54.10;35.00;;;;;;;2.51;80.64;95912.59;108778;1251;100166;-74
2023/01/16 08:55:51;;;;;;;57.90;35.50;;;;;;;2.50;80.61;95912.18;108668;1251;96587;-74
2023/01/16 08:58:20;;;;;;;54.60;33.60;;;;;;;2.51;80.69;95906.24;108861;1251;96043;-73
2023/01/16 09:00:50;;;;;;;55.80;35.60;;;;;;;2.52;80.67;95899.90;108836;1251;103267;-74
2023/01/16 09:03:18;;;;;;;58.60;34.90;;;;;;;2.53;80.75;95900.52;108922;1251;101124;-73
2023/01/16 09:05:46;;;;;;;57.70;35.10;;;;;;;2.57;80.77;95895.80;108560;1251;99092;-73
2023/01/16 09:08:14;;;;;;;57.00;34.40;;;;;;;2.60;80.67;95891.44;108835;1251;96046;-74
2023/01/16 09:13:48;;;;;;;61.70;35.60;;;;;;;2.64;80.70;95889.77;108550;1251;96093;-74
2023/01/16 09:16:25;;;;;;;57.30;34.80;;;;;;;2.69;80.78;95871.91;108498;1257;101376;-74
2023/01/16 09:18:54;;;;;;;53.60;33.00;;;;;;;2.75;80.83;95863.63;108250;1257;108572;-73
2023/01/16 09:21:24;;;;;;;53.00;31.50;;;;;;;2.79;80.93;95861.41;108224;1257;95746;-74
2023/01/16 09:23:53;;;;;;;54.20;33.30;;;;;;;2.83;80.95;95853.89;108446;1256;96117;-74
2023/01/16 09:26:22;;;;;;;55.20;33.90;;;;;;;2.87;81.00;95850.42;108449;1256;103377;-73
2023/01/16 09:28:50;;;;;;;56.90;35.40;;;;;;;2.92;81.00;95842.80;108262;1256;100913;-74
2023/01/16 09:31:19;;;;;;;53.20;33.50;;;;;;;2.98;80.95;95838.11;108455;1256;99966;-73
2023/01/16 09:33:49;;;;;;;55.40;33.80;;;;;;;3.06;81.01;95831.55;108414;1256;95716;-73
2023/01/16 09:36:17;;;;;;;50.20;29.60;;;;;;;3.14;81.09;95827.08;108498;1256;96144;-74
2023/01/16 09:38:45;;;;;;;48.50;27.90;;;;;;;3.21;80.87;95820.98;108467;1257;103343;-74
2023/01/16 09:44:04;;;;;;;37.50;23.50;;;;;;;3.35;80.77;95806.64;108444;1257;98965;-73
2023/01/16 09:46:40;;;;;;;32.90;21.00;;;;;;;3.41;80.69;95797.81;108437;1256;95698;-74
2023/01/16 09:49:22;;;;;;;26.80;18.00;;;;;;;3.46;80.63;95788.53;108486;1257;96151;-73
2023/01/16 10:00:29;;;;;;;26.40;16.20;;;;;;;3.66;80.40;95749.43;108843;1251;95576;-73
2023/01/16 10:02:57;;;;;;;23.80;14.70;;;;;;;3.72;80.42;95739.52;108878;1251;96065;-74
2023/01/16 10:05:34;;;;;;;26.00;16.00;;;;;;;3.78;80.43;95731.58;108851;1251;103514;-73
2023/01/16 10:08:19;;;;;;;24.00;14.20;;;;;;;3.85;80.28;95719.08;108559;1254;102804;-74
2023/01/16 10:11:12;;;;;;;24.10;15.40;;;;;;;3.92;80.22;95709.86;108840;1251;99722;-73
2023/01/16 10:13:53;;;;;;;18.00;13.00;;;;;;;4.02;80.21;95698.52;108111;1262;95667;-74
2023/01/16 10:16:35;;;;;;;18.30;11.40;;;;;;;4.11;80.10;95690.59;108272;1260;96702;-74
2023/01/16 10:19:17;;;;;;;21.30;13.30;;;;;;;4.20;79.95;95685.38;108223;1259;103601;-74
2023/01/16 10:22:08;;;;;;;16.40;10.50;;;;;;;4.30;79.90;95677.92;108267;1259;101749;-73
2023/01/16 10:24:38;;;;;;;17.10;11.40;;;;;;;4.36;79.73;95671.02;108117;1259;99904;-73
2023/01/16 10:27:28;;;;;;;18.00;11.20;;;;;;;4.41;79.53;95666.06;108234;1259;95790;-73
2023/01/16 10:30:02;;;;;;;14.70;9.80;;;;;;;4.48;79.49;95663.30;108266;1259;96712;-73
2023/01/16 10:32:45;;;;;;;18.90;10.20;;;;;;;4.55;79.34;95660.80;108260;1259;103340;-73
2023/01/16 10:35:44;;;;;;;13.50;9.00;;;;;;;4.62;79.25;95651.98;108063;1259;100433;-74
2023/01/16 10:38:45;;;;;;;15.00;9.80;;;;;;;4.67;78.95;95641.72;108229;1260;100192;-73
2023/01/16 10:49:58;;;;;;;10.40;6.90;;;;;;;4.72;78.57;95603.34;108313;1259;100461;-73
2023/01/16 10:52:27;;;;;;;11.20;6.90;;;;;;;4.77;78.43;95600.43;108750;1252;98983;-73
2023/01/16 10:54:58;;;;;;;10.50;6.90;;;;;;;4.81;78.35;95583.30;108881;1251;95543;-74
2023/01/16 10:57:27;;;;;;;10.80;6.60;;;;;;;4.84;78.34;95573.55;108583;1256;96084;-74
2023/01/16 11:00:05;;;;;;;9.30;6.30;;;;;;;4.88;78.11;95572.08;108661;1254;102542;-74
2023/01/16 11:02:40;;;;;;;12.50;8.00;;;;;;;4.93;78.10;95564.34;108603;1251;101381;-74
2023/01/16 11:05:33;;;;;;;11.20;6.90;;;;;;;4.98;78.07;95563.61;108863;1251;99998;-74
2023/01/16 11:08:17;;;;;;;11.30;7.40;;;;;;;5.03;77.78;95555.23;108677;1254;95588;-74
2023/01/16 11:10:48;;;;;;;10.00;6.20;;;;;;;5.08;77.63;95547.30;108880;1251;96028;-73
2023/01/16 11:19:21;;;;;;;11.50;7.10;;;;;;;5.12;77.41;95517.77;108880;1251;99623;-74
2023/01/16 11:22:04;;;;;;;8.60;5.60;;;;;;;5.11;77.39;95512.72;108841;1251;95647;-75
2023/01/16 11:24:40;;;;;;;8.80;5.70;;;;;;;5.12;77.35;95510.19;108884;1251;96291;-74
2023/01/16 11:27:17;;;;;;;9.30;6.20;;;;;;;5.16;77.64;95505.42;108871;1250;103469;-74
2023/01/16 11:29:46;;;;;;;8.70;5.20;;;;;;;5.19;77.94;95505.26;108895;1251;101262;-74
2023/01/16 11:32:17;;;;;;;6.30;4.40;;;;;;;5.20;77.56;95505.54;108851;1251;99597;-75
2023/01/16 11:34:48;;;;;;;10.30;5.90;;;;;;;5.21;77.35;95502.55;108803;1251;95539;-74
2023/01/16 11:37:17;;;;;;;5.70;4.30;;;;;;;5.24;77.26;95496.15;108657;1251;96563;-74
2023/01/16 11:39:54;;;;;;;5.90;4.40;;;;;;;5.27;77.45;95484.09;108874;1251;103791;-75
2023/01/16 11:48:22;;;;;;;11.50;7.30;;;;;;;5.32;76.77;95473.73;108853;1251;95581;-74
2023/01/16 11:50:53;;;;;;;9.70;7.10;;;;;;;5.33;76.69;95469.31;108847;1252;96370;-74
2023/01/16 11:53:22;;;;;;;21.60;13.00;;;;;;;5.37;76.64;95468.85;108798;1251;103033;-74
2023/01/16 11:56:10;;;;;;;21.80;13.50;;;;;;;5.39;76.39;95457.02;108850;1255;101258;-74
2023/01/16 11:59:08;;;;;;;22.20;12.70;;;;;;;5.34;76.43;95446.45;108781;1251;99503;-74
2023/01/16 12:08:21;;;;;;;9.10;6.60;;;;;;;5.36;76.97;95432.00;108238;1263;103545;-75
2023/01/16 12:11:15;;;;;;;10.60;6.20;;;;;;;5.40;77.09;95425.92;108255;1259;109609;-74
2023/01/16 12:16:34;;;;;;;9.60;6.30;;;;;;;5.52;76.84;95411.60;107930;1265;95733;-75
2023/01/16 12:19:27;;;;;;;6.80;5.00;;;;;;;5.57;76.44;95404.97;107934;1264;96055;-74
2023/01/16 12:22:07;;;;;;;6.50;4.40;;;;;;;5.62;76.18;95395.59;107705;1266;104881;-74
2023/01/16 12:24:35;;;;;;;4.90;2.80;;;;;;;5.68;76.20;95386.48;107693;1265;101055;-74
2023/01/16 12:27:30;;;;;;;4.00;2.70;;;;;;;5.74;75.81;95379.72;107884;1265;100022;-74
2023/01/16 12:30:19;;;;;;;5.30;2.50;;;;;;;5.79;75.29;95373.91;107868;1267;96046;-75
2023/01/16 12:32:54;;;;;;;6.40;2.90;;;;;;;5.82;74.94;95363.59;107852;1267;96144;-74
2023/01/16 12:35:23;;;;;;;5.30;3.00;;;;;;;5.84;74.59;95353.98;107876;1267;102417;-75
2023/01/16 12:38:18;;;;;;;3.90;2.90;;;;;;;5.83;74.20;95344.27;107914;1268;110076;-74
2023/01/16 12:43:17;;;;;;;3.20;2.80;;;;;;;5.84;74.03;95340.61;108221;1259;100076;-74
2023/01/16 12:44:06;;;;;;;4.80;3.50;;;;;;;5.86;73.98;95336.44;108250;1258;95846;-75
2023/01/16 12:46:46;;;;;;;7.90;4.50;;;;;;;5.89;74.23;95338.36;108173;1260;189386;-74
2023/01/16 12:49:24;;;;;;;5.60;4.50;;;;;;;5.95;74.29;95330.71;108295;1260;103560;-75
2023/01/16 12:52:34;;;;;;;7.80;4.40;;;;;;;5.97;74.10;95324.73;108664;1251;101317;-74
2023/01/16 12:55:20;;;;;;;4.50;3.30;;;;;;;5.98;73.77;95321.17;108766;1252;99910;-74
2023/01/16 12:58:10;;;;;;;5.30;3.80;;;;;;;5.99;73.39;95320.10;108747;1251;95639;-75